createdAt,value
2023-02-08T00:00:58.236Z,51.69
2023-02-08T00:01:59.011Z,47.97
2023-02-08T00:02:58.301Z,51.49
2023-02-08T00:03:58.290Z,54.38
2023-02-08T00:04:58.235Z,51.22
2023-02-08T00:05:58.213Z,49.73
2023-02-08T00:06:58.216Z,45.49
2023-02-08T00:07:58.208Z,49.61
2023-02-08T00:08:58.196Z,52.98
2023-02-08T00:09:58.180Z,45.95
2023-02-08T00:10:58.206Z,45.72
2023-02-08T00:11:58.217Z,46.15
2023-02-08T00:12:58.169Z,45.97
2023-02-08T00:13:58.163Z,46.67
2023-02-08T00:14:58.144Z,49.40
2023-02-08T00:15:58.202Z,50.86
2023-02-08T00:16:58.137Z,47.31
2023-02-08T00:17:58.122Z,46.85
2023-02-08T00:18:58.103Z,46.73
2023-02-08T00:20:30.060Z,46.88
2023-02-08T00:20:58.190Z,46.79
2023-02-08T00:21:58.108Z,51.91
2023-02-08T00:22:59.128Z,46.58
2023-02-08T00:23:58.085Z,51.58
2023-02-08T00:24:58.053Z,52.28
2023-02-08T00:25:58.144Z,45.63
2023-02-08T00:26:58.071Z,46.94
2023-02-08T00:27:58.119Z,55.02
2023-02-08T00:28:59.020Z,51.21
2023-02-08T00:29:58.040Z,51.97
2023-02-08T00:30:58.229Z,46.89
2023-02-08T00:31:58.068Z,51.96
2023-02-08T00:32:58.144Z,56.59
2023-02-08T00:33:58.040Z,52.31
2023-02-08T00:34:58.011Z,59.52
2023-02-08T00:35:58.041Z,46.89
2023-02-08T00:36:57.979Z,58.56
2023-02-08T00:37:57.992Z,46.64
2023-02-08T00:38:57.958Z,46.27
2023-02-08T00:39:58.608Z,50.96
2023-02-08T00:40:58.141Z,46.29
2023-02-08T00:41:57.943Z,48.09
2023-02-08T00:42:57.947Z,54.70
2023-02-08T00:43:58.045Z,50.13
2023-02-08T00:44:57.947Z,47.25
2023-02-08T00:45:57.923Z,53.03
2023-02-08T00:46:57.914Z,52.59
2023-02-08T00:47:57.922Z,47.11
2023-02-08T00:48:57.919Z,46.59
2023-02-08T00:49:57.899Z,46.18
2023-02-08T00:50:57.869Z,54.58
2023-02-08T00:51:57.867Z,53.04
2023-02-08T00:52:57.876Z,55.68
2023-02-08T00:53:57.890Z,46.08
2023-02-08T00:54:57.866Z,51.39
2023-02-08T00:55:57.880Z,52.60
2023-02-08T00:56:57.828Z,46.80
2023-02-08T00:57:57.840Z,47.17
2023-02-08T00:58:58.092Z,52.56
2023-02-08T00:59:57.841Z,53.58
2023-02-08T01:00:57.852Z,49.04
2023-02-08T01:01:57.900Z,46.97
2023-02-08T01:02:57.782Z,45.86
2023-02-08T01:03:57.789Z,53.60
2023-02-08T01:04:57.763Z,52.02
2023-02-08T01:05:57.764Z,56.44
2023-02-08T01:06:57.748Z,51.04
2023-02-08T01:07:57.740Z,51.66
2023-02-08T01:08:57.792Z,51.84
2023-02-08T01:09:57.755Z,63.99
2023-02-08T01:10:57.738Z,54.64
2023-02-08T01:11:57.729Z,63.97
2023-02-08T01:12:57.914Z,46.51
2023-02-08T01:13:57.769Z,59.10
2023-02-08T01:14:57.754Z,58.28
2023-02-08T01:15:57.724Z,60.84
2023-02-08T01:16:57.699Z,46.01
2023-02-08T01:17:57.712Z,52.98
2023-02-08T01:18:57.696Z,51.13
2023-02-08T01:19:59.147Z,45.70
2023-02-08T01:20:57.687Z,46.37
2023-02-08T01:21:57.702Z,50.44
2023-02-08T01:22:57.664Z,46.12
2023-02-08T01:23:57.649Z,57.44
2023-02-08T01:24:57.657Z,46.08
2023-02-08T01:25:58.602Z,51.92
2023-02-08T01:26:57.653Z,52.28
2023-02-08T01:27:57.665Z,45.59
2023-02-08T01:28:57.581Z,45.60
2023-02-08T01:29:57.593Z,50.34
2023-02-08T01:30:57.626Z,49.24
2023-02-08T01:31:57.604Z,49.37
2023-02-08T01:32:57.589Z,54.98
2023-02-08T01:33:57.606Z,54.83
2023-02-08T01:34:57.611Z,49.92
2023-02-08T01:35:57.562Z,52.62
2023-02-08T01:36:57.559Z,53.30
2023-02-08T01:37:57.545Z,46.10
2023-02-08T01:38:57.524Z,45.97
2023-02-08T01:39:57.523Z,50.99
2023-02-08T01:40:57.529Z,50.92
2023-02-08T01:41:57.520Z,52.24
2023-02-08T01:42:57.497Z,46.65
2023-02-08T01:43:57.632Z,52.28
2023-02-08T01:44:57.491Z,46.95
2023-02-08T01:45:57.494Z,55.96
2023-02-08T01:46:57.544Z,52.85
2023-02-08T01:47:57.487Z,51.48
2023-02-08T01:48:57.490Z,51.48
2023-02-08T01:49:57.490Z,47.91
2023-02-08T01:50:57.475Z,55.61
2023-02-08T01:51:57.456Z,53.45
2023-02-08T01:52:57.473Z,47.25
2023-02-08T01:53:57.427Z,46.46
2023-02-08T01:54:57.444Z,51.31
2023-02-08T01:55:58.139Z,47.23
2023-02-08T01:56:57.394Z,47.51
2023-02-08T01:57:57.440Z,51.55
2023-02-08T01:58:57.444Z,46.88
2023-02-08T01:59:57.662Z,46.89
2023-02-08T02:00:57.387Z,48.28
2023-02-08T02:01:57.389Z,46.77
2023-02-08T02:02:57.353Z,46.58
2023-02-08T02:03:57.344Z,52.44
2023-02-08T02:04:57.353Z,50.29
2023-02-08T02:05:57.337Z,51.16
2023-02-08T02:06:57.321Z,45.87
2023-02-08T02:07:57.306Z,50.82
2023-02-08T02:08:57.307Z,56.90
2023-02-08T02:09:57.322Z,46.51
2023-02-08T02:10:58.074Z,51.39
2023-02-08T02:11:58.307Z,57.15
2023-02-08T02:12:57.270Z,50.56
2023-02-08T02:13:57.279Z,52.09
2023-02-08T02:14:57.259Z,46.18
2023-02-08T02:15:57.256Z,51.37
2023-02-08T02:16:57.268Z,46.52
2023-02-08T02:17:57.232Z,52.76
2023-02-08T02:18:57.582Z,47.87
2023-02-08T02:19:57.221Z,46.82
2023-02-08T02:20:57.224Z,48.70
2023-02-08T02:21:57.332Z,58.27
2023-02-08T02:22:57.336Z,47.15
2023-02-08T02:23:57.198Z,52.24
2023-02-08T02:24:57.192Z,54.32
2023-02-08T02:25:57.188Z,46.38
2023-02-08T02:26:57.184Z,46.60
2023-02-08T02:27:57.288Z,45.83
2023-02-08T02:28:57.175Z,45.98
2023-02-08T02:29:57.178Z,46.98
2023-02-08T02:30:57.134Z,46.40
2023-02-08T02:31:57.276Z,46.78
2023-02-08T02:32:57.163Z,49.06
2023-02-08T02:33:57.137Z,48.20
2023-02-08T02:34:57.109Z,46.93
2023-02-08T02:35:57.120Z,45.60
2023-02-08T02:36:57.127Z,46.14
2023-02-08T02:37:57.101Z,48.25
2023-02-08T02:38:57.085Z,50.71
2023-02-08T02:39:57.075Z,51.68
2023-02-08T02:40:57.191Z,46.36
2023-02-08T02:41:57.082Z,46.51
2023-02-08T02:42:57.109Z,46.09
2023-02-08T02:43:57.041Z,46.65
2023-02-08T02:44:57.039Z,47.78
2023-02-08T02:45:57.167Z,49.16
2023-02-08T02:46:57.100Z,47.14
2023-02-08T02:47:57.043Z,46.52
2023-02-08T02:48:57.013Z,51.34
2023-02-08T02:49:57.010Z,48.00
2023-02-08T02:50:57.006Z,53.53
2023-02-08T02:51:57.055Z,45.92
2023-02-08T02:52:56.993Z,46.03
2023-02-08T02:53:56.990Z,46.49
2023-02-08T02:54:57.019Z,47.30
2023-02-08T02:55:56.966Z,45.93
2023-02-08T02:56:56.974Z,45.68
2023-02-08T02:57:56.972Z,50.67
2023-02-08T02:58:56.946Z,45.99
2023-02-08T02:59:56.991Z,46.51
2023-02-08T03:00:56.961Z,50.24
2023-02-08T03:01:56.920Z,46.36
2023-02-08T03:02:56.969Z,46.33
2023-02-08T03:03:56.927Z,46.86
2023-02-08T03:04:56.905Z,47.14
2023-02-08T03:05:56.890Z,50.08
2023-02-08T03:06:56.894Z,58.60
2023-02-08T03:07:56.916Z,53.28
2023-02-08T03:08:56.883Z,47.84
2023-02-08T03:09:56.905Z,53.30
2023-02-08T03:10:56.854Z,47.96
2023-02-08T03:11:56.892Z,51.74
2023-02-08T03:12:56.882Z,48.12
2023-02-08T03:13:56.854Z,47.14
2023-02-08T03:14:56.847Z,48.41
2023-02-08T03:15:56.868Z,59.54
2023-02-08T03:16:56.896Z,46.90
2023-02-08T03:17:56.808Z,49.77
2023-02-08T03:18:56.818Z,48.71
2023-02-08T03:19:56.797Z,51.67
2023-02-08T03:20:56.816Z,51.34
2023-02-08T03:21:56.793Z,46.87
2023-02-08T03:22:56.790Z,47.28
2023-02-08T03:23:56.817Z,58.99
2023-02-08T03:24:56.769Z,47.21
2023-02-08T03:25:56.846Z,46.89
2023-02-08T03:26:56.763Z,48.01
2023-02-08T03:27:56.806Z,52.19
2023-02-08T03:28:56.828Z,51.21
2023-02-08T03:29:56.718Z,51.54
2023-02-08T03:30:56.800Z,57.73
2023-02-08T03:31:56.867Z,47.65
2023-02-08T03:32:56.721Z,47.41
2023-02-08T03:33:56.709Z,52.92
2023-02-08T03:34:56.701Z,53.85
2023-02-08T03:35:56.711Z,57.87
2023-02-08T03:36:56.674Z,50.80
2023-02-08T03:37:56.680Z,56.21
2023-02-08T03:38:56.668Z,48.49
2023-02-08T03:39:56.668Z,62.30
2023-02-08T03:40:56.678Z,54.93
2023-02-08T03:41:56.712Z,52.91
2023-02-08T03:42:56.646Z,58.54
2023-02-08T03:43:56.625Z,47.12
2023-02-08T03:44:56.615Z,53.63
2023-02-08T03:45:56.659Z,48.26
2023-02-08T03:46:56.649Z,57.71
2023-02-08T04:04:07.033Z,52.31
2023-02-08T04:05:07.021Z,57.08
2023-02-08T04:06:07.007Z,55.27
2023-02-08T04:07:08.156Z,59.34
2023-02-08T04:08:08.148Z,64.88
2023-02-08T04:09:08.121Z,58.50
2023-02-08T04:10:08.123Z,57.19
2023-02-08T04:11:08.097Z,53.94
2023-02-08T04:12:08.122Z,52.57
2023-02-08T04:13:08.083Z,53.06
2023-02-08T04:14:08.121Z,58.73
2023-02-08T04:15:08.065Z,59.95
2023-02-08T04:16:08.791Z,63.39
2023-02-08T04:17:08.082Z,65.31
2023-02-08T04:18:08.048Z,57.52
2023-02-08T04:19:08.040Z,48.11
2023-02-08T04:20:08.054Z,63.23
2023-02-08T04:21:08.073Z,62.60
2023-02-08T04:22:08.028Z,61.66
2023-02-08T04:23:08.004Z,65.99
2023-02-08T04:24:08.000Z,57.78
2023-02-08T04:25:08.062Z,56.68
2023-02-08T04:26:07.997Z,66.44
2023-02-08T04:27:07.985Z,67.50
2023-02-08T04:28:08.097Z,61.62
2023-02-08T04:29:07.969Z,62.38
2023-02-08T04:30:07.963Z,57.26
2023-02-08T04:31:08.823Z,62.74
2023-02-08T04:32:07.988Z,61.14
2023-02-08T04:33:07.948Z,53.11
2023-02-08T04:34:07.970Z,60.01
2023-02-08T04:35:07.915Z,61.65
2023-02-08T04:36:07.946Z,60.35
2023-02-08T04:37:07.932Z,58.12
2023-02-08T04:38:07.900Z,61.96
2023-02-08T04:39:07.886Z,62.74
2023-02-08T04:40:07.890Z,55.63
2023-02-08T04:41:07.905Z,61.98
2023-02-08T04:42:07.888Z,66.95
2023-02-08T04:43:07.883Z,59.73
2023-02-08T04:44:07.885Z,64.60
2023-02-08T04:45:07.917Z,67.80
2023-02-08T04:46:07.858Z,62.84
2023-02-08T04:47:07.876Z,65.43
2023-02-08T04:48:07.831Z,64.59
2023-02-08T04:49:07.816Z,64.43
2023-02-08T04:50:07.837Z,59.50
2023-02-08T04:51:07.840Z,67.64
2023-02-08T04:52:07.803Z,63.09
2023-02-08T04:53:07.823Z,66.05
2023-02-08T04:54:07.804Z,65.53
2023-02-08T04:55:07.793Z,62.93
2023-02-08T04:56:07.826Z,58.37
2023-02-08T04:57:07.804Z,64.57
2023-02-08T04:58:07.797Z,67.06
2023-02-08T04:59:07.754Z,64.86
2023-02-08T05:00:07.790Z,66.55
2023-02-08T05:01:07.741Z,56.98
2023-02-08T05:02:07.725Z,61.67
2023-02-08T05:03:07.735Z,63.01
2023-02-08T05:04:07.738Z,53.76
2023-02-08T05:05:07.801Z,64.01
2023-02-08T05:06:07.699Z,60.96
2023-02-08T05:07:07.688Z,71.57
2023-02-08T05:08:07.674Z,67.30
2023-02-08T05:09:07.705Z,66.18
2023-02-08T05:10:07.731Z,70.66
2023-02-08T05:11:07.680Z,66.81
2023-02-08T05:12:07.645Z,66.90
2023-02-08T05:13:07.641Z,62.92
2023-02-08T05:14:07.634Z,68.93
2023-02-08T05:15:07.656Z,59.01
2023-02-08T05:16:07.714Z,62.76
2023-02-08T05:17:07.628Z,68.43
2023-02-08T05:18:07.617Z,68.80
2023-02-08T05:19:07.596Z,65.46
2023-02-08T05:20:07.605Z,61.16
2023-02-08T05:21:07.615Z,68.22
2023-02-08T05:22:07.594Z,63.53
2023-02-08T05:23:07.585Z,65.84
2023-02-08T05:24:07.603Z,67.76
2023-02-08T05:25:39.485Z,63.10
2023-02-08T05:26:07.549Z,67.28
2023-02-08T05:27:07.565Z,68.27
2023-02-08T05:28:07.574Z,69.89
2023-02-08T05:29:07.541Z,65.61
2023-02-08T05:30:07.526Z,65.69
2023-02-08T05:31:39.563Z,67.45
2023-02-08T05:32:07.520Z,71.06
2023-02-08T05:33:07.514Z,65.95
2023-02-08T05:34:07.514Z,69.31
2023-02-08T05:35:07.484Z,63.13
2023-02-08T05:36:07.497Z,69.31
2023-02-08T05:37:07.456Z,67.82
2023-02-08T05:38:07.473Z,64.56
2023-02-08T05:39:07.455Z,64.35
2023-02-08T05:40:07.462Z,71.14
2023-02-08T05:41:07.465Z,69.26
2023-02-08T05:42:07.431Z,70.27
2023-02-08T05:43:07.487Z,66.69
2023-02-08T05:44:07.425Z,58.17
2023-02-08T05:45:07.407Z,67.67
2023-02-08T05:46:07.439Z,75.14
2023-02-08T05:47:07.499Z,72.02
2023-02-08T05:48:07.415Z,70.29
2023-02-08T05:49:07.376Z,68.13
2023-02-08T05:50:07.388Z,69.93
2023-02-08T05:51:07.365Z,67.91
2023-02-08T05:52:07.352Z,67.27
2023-02-08T05:53:07.376Z,70.78
2023-02-08T05:54:07.350Z,69.17
2023-02-08T05:55:07.324Z,70.61
2023-02-08T05:56:07.314Z,66.36
2023-02-08T05:57:07.368Z,60.85
2023-02-08T05:58:07.358Z,65.81
2023-02-08T05:59:07.358Z,73.61
2023-02-08T06:00:07.331Z,61.63
2023-02-08T06:01:07.328Z,68.40
2023-02-08T06:02:07.335Z,69.11
2023-02-08T06:03:07.339Z,63.49
2023-02-08T06:04:07.311Z,69.09
2023-02-08T06:05:07.323Z,68.78
2023-02-08T06:06:07.267Z,70.72
2023-02-08T06:07:07.254Z,68.75
2023-02-08T06:08:07.303Z,60.66
2023-02-08T06:09:07.243Z,70.14
2023-02-08T06:10:07.302Z,74.49
2023-02-08T06:11:07.207Z,68.06
2023-02-08T06:12:07.202Z,71.33
2023-02-08T06:13:07.223Z,71.86
2023-02-08T06:14:07.207Z,70.19
2023-02-08T06:15:07.210Z,71.31
2023-02-08T06:16:07.248Z,71.26
2023-02-08T06:17:07.216Z,71.18
2023-02-08T06:18:07.163Z,71.89
2023-02-08T06:19:07.173Z,66.47
2023-02-08T06:20:39.531Z,72.86
2023-02-08T06:21:07.128Z,71.52
2023-02-08T06:22:07.141Z,72.01
2023-02-08T06:23:07.125Z,68.33
2023-02-08T06:24:07.115Z,71.63
2023-02-08T06:25:08.133Z,72.15
2023-02-08T06:26:07.133Z,69.01
2023-02-08T06:27:07.160Z,71.86
2023-02-08T06:28:07.143Z,72.77
2023-02-08T06:29:07.107Z,72.87
2023-02-08T06:30:07.066Z,72.60
2023-02-08T06:31:07.090Z,71.97
2023-02-08T06:32:07.176Z,72.12
2023-02-08T06:33:07.059Z,70.12
2023-02-08T06:34:07.060Z,74.34
2023-02-08T06:35:07.034Z,73.08
2023-02-08T06:36:07.056Z,62.40
2023-02-08T06:37:07.016Z,71.92
2023-02-08T06:38:07.026Z,73.72
2023-02-08T06:39:07.011Z,72.55
2023-02-08T06:40:07.008Z,72.67
2023-02-08T06:41:07.028Z,71.14
2023-02-08T06:42:06.981Z,70.26
2023-02-08T06:43:07.014Z,73.39
2023-02-08T06:44:06.980Z,72.94
2023-02-08T06:45:06.986Z,72.27
2023-02-08T06:46:06.999Z,72.34
2023-02-08T06:47:06.960Z,70.63
2023-02-08T06:48:06.962Z,71.13
2023-02-08T06:49:06.938Z,72.63
2023-02-08T06:50:06.940Z,71.17
2023-02-08T06:51:06.927Z,72.01
2023-02-08T06:52:06.937Z,73.46
2023-02-08T06:53:06.920Z,72.78
2023-02-08T06:54:06.913Z,66.54
2023-02-08T06:55:06.877Z,73.76
2023-02-08T06:56:06.879Z,67.92
2023-02-08T06:57:06.891Z,61.81
2023-02-08T06:58:06.912Z,70.98
2023-02-08T06:59:06.847Z,66.43
2023-02-08T07:00:06.851Z,69.47
2023-02-08T07:01:06.854Z,71.97
2023-02-08T07:02:06.924Z,64.95
2023-02-08T07:03:06.843Z,71.69
2023-02-08T07:04:06.817Z,67.35
2023-02-08T07:05:06.849Z,73.42
2023-02-08T07:06:06.790Z,73.43
2023-02-08T07:07:06.826Z,71.03
2023-02-08T07:08:06.781Z,70.78
2023-02-08T07:09:06.798Z,66.09
2023-02-08T07:10:06.777Z,73.46
2023-02-08T07:11:06.759Z,67.34
2023-02-08T07:12:06.784Z,68.32
2023-02-08T07:13:06.765Z,71.06
2023-02-08T07:14:06.823Z,73.42
2023-02-08T07:15:06.769Z,67.51
2023-02-08T07:16:06.739Z,71.27
2023-02-08T07:17:06.757Z,73.72
2023-02-08T07:18:06.720Z,63.83
2023-02-08T07:19:06.750Z,70.12
2023-02-08T07:20:06.705Z,70.98
2023-02-08T07:21:06.711Z,71.81
2023-02-08T07:22:07.552Z,73.38
2023-02-08T07:23:07.682Z,68.71
2023-02-08T07:24:06.666Z,70.12
2023-02-08T07:25:06.690Z,61.60
2023-02-08T07:26:06.670Z,66.48
2023-02-08T07:27:06.691Z,72.09
2023-02-08T07:28:06.693Z,66.33
2023-02-08T07:29:06.623Z,69.77
2023-02-08T07:30:06.627Z,73.34
2023-02-08T07:31:06.731Z,68.15
2023-02-08T07:32:06.684Z,67.43
2023-02-08T07:33:06.616Z,64.36
2023-02-08T07:34:06.639Z,68.32
2023-02-08T07:35:06.615Z,64.84
2023-02-08T07:36:06.598Z,73.04
2023-02-08T07:37:06.599Z,72.66
2023-02-08T07:38:06.624Z,68.36
2023-02-08T07:39:06.553Z,66.87
2023-02-08T07:40:06.572Z,63.35
2023-02-08T07:41:06.556Z,70.10
2023-02-08T07:42:06.574Z,66.87
2023-02-08T07:43:06.553Z,72.14
2023-02-08T07:44:06.528Z,70.15
2023-02-08T07:45:06.518Z,62.51
2023-02-08T07:46:06.544Z,71.91
2023-02-08T07:47:06.501Z,70.34
2023-02-08T07:48:06.528Z,64.04
2023-02-08T07:49:06.547Z,70.80
2023-02-08T07:50:06.495Z,67.80
2023-02-08T07:51:07.259Z,67.25
2023-02-08T07:52:06.518Z,70.54
2023-02-08T07:53:06.520Z,71.33
2023-02-08T07:54:06.453Z,68.34
2023-02-08T07:55:06.448Z,67.69
2023-02-08T07:56:06.433Z,68.17
2023-02-08T07:57:06.440Z,65.11
2023-02-08T07:58:06.447Z,62.49
2023-02-08T07:59:06.416Z,55.79
2023-02-08T08:00:06.407Z,66.41
2023-02-08T08:01:20.891Z,71.46
2023-02-08T08:02:08.396Z,64.18
2023-02-08T08:03:07.399Z,71.19
2023-02-08T08:04:06.479Z,61.63
2023-02-08T08:05:06.405Z,68.38
2023-02-08T08:06:06.374Z,63.43
2023-02-08T08:07:06.346Z,65.46
2023-02-08T08:08:06.378Z,68.45
2023-02-08T08:09:06.344Z,65.51
2023-02-08T08:10:06.352Z,65.84
2023-02-08T08:11:06.321Z,69.50
2023-02-08T08:12:06.326Z,67.59
2023-02-08T08:13:06.310Z,67.36
2023-02-08T08:14:06.306Z,69.42
2023-02-08T08:15:06.307Z,66.43
2023-02-08T08:16:06.344Z,67.99
2023-02-08T08:17:06.395Z,67.92
2023-02-08T08:18:06.408Z,69.01
2023-02-08T08:19:06.262Z,60.95
2023-02-08T08:20:06.270Z,68.49
2023-02-08T08:21:06.248Z,66.98
2023-02-08T08:22:06.253Z,63.77
2023-02-08T08:23:06.236Z,66.79
2023-02-08T08:24:06.228Z,70.07
2023-02-08T08:25:06.234Z,65.86
2023-02-08T08:26:06.211Z,68.60
2023-02-08T08:27:06.283Z,61.03
2023-02-08T08:28:06.249Z,65.30
2023-02-08T08:29:06.211Z,65.66
2023-02-08T08:30:06.175Z,67.12
2023-02-08T08:31:06.280Z,66.69
2023-02-08T08:32:06.167Z,69.80
2023-02-08T08:33:06.171Z,68.64
2023-02-08T08:34:06.188Z,62.91
2023-02-08T08:35:06.141Z,71.81
2023-02-08T08:36:06.167Z,59.14
2023-02-08T08:37:06.148Z,65.49
2023-02-08T08:38:06.136Z,63.37
2023-02-08T08:39:06.167Z,63.20
2023-02-08T08:40:06.093Z,67.93
2023-02-08T08:41:06.124Z,68.05
2023-02-08T08:42:06.089Z,67.92
2023-02-08T08:43:06.079Z,64.65
2023-02-08T08:44:06.108Z,69.58
2023-02-08T08:45:06.061Z,70.62
2023-02-08T08:46:06.082Z,69.34
2023-02-08T08:47:06.057Z,60.99
2023-02-08T08:48:06.077Z,71.35
2023-02-08T08:49:06.045Z,68.62
2023-02-08T08:50:06.030Z,56.05
2023-02-08T08:51:06.026Z,68.89
2023-02-08T08:52:06.015Z,54.08
2023-02-08T08:53:06.039Z,69.58
2023-02-08T08:54:06.042Z,70.60
2023-02-08T08:55:06.004Z,68.80
2023-02-08T08:56:06.001Z,63.98
2023-02-08T08:57:05.977Z,68.26
2023-02-08T08:58:05.985Z,65.34
2023-02-08T08:59:05.991Z,67.46
2023-02-08T09:00:05.968Z,65.53
2023-02-08T09:01:05.973Z,63.19
2023-02-08T09:02:05.994Z,65.02
2023-02-08T09:03:05.985Z,71.24
2023-02-08T09:04:05.933Z,67.44
2023-02-08T09:05:05.946Z,63.06
2023-02-08T09:06:05.936Z,60.54
2023-02-08T09:07:05.920Z,63.25
2023-02-08T09:08:05.887Z,66.00
2023-02-08T09:09:05.905Z,69.00
2023-02-08T09:10:05.885Z,63.32
2023-02-08T09:11:05.849Z,68.30
2023-02-08T09:12:05.867Z,64.89
2023-02-08T09:13:05.892Z,68.90
2023-02-08T09:14:05.859Z,68.04
2023-02-08T09:15:05.833Z,65.76
2023-02-08T09:16:06.393Z,62.86
2023-02-08T09:17:05.810Z,67.16
2023-02-08T09:18:05.823Z,67.51
2023-02-08T09:19:05.799Z,64.35
2023-02-08T09:20:05.781Z,70.40
2023-02-08T09:21:05.771Z,65.47
2023-02-08T09:22:05.805Z,68.37
2023-02-08T09:23:05.784Z,62.64
2023-02-08T09:24:05.788Z,69.91
2023-02-08T09:25:05.755Z,70.62
2023-02-08T09:26:05.753Z,71.33
2023-02-08T09:27:05.739Z,65.71
2023-02-08T09:28:05.766Z,65.22
2023-02-08T09:29:05.708Z,68.11
2023-02-08T09:30:05.690Z,58.94
2023-02-08T09:31:05.782Z,63.99
2023-02-08T09:32:05.749Z,65.36
2023-02-08T09:33:05.681Z,63.30
2023-02-08T09:34:05.683Z,65.11
2023-02-08T09:35:05.655Z,68.91
2023-02-08T09:36:05.641Z,68.64
2023-02-08T09:37:05.656Z,66.06
2023-02-08T09:38:05.658Z,68.35
2023-02-08T09:39:05.629Z,69.92
2023-02-08T09:40:05.628Z,69.21
2023-02-08T09:41:05.627Z,66.50
2023-02-08T09:42:05.596Z,66.08
2023-02-08T09:43:05.602Z,65.93
2023-02-08T09:44:05.627Z,66.52
2023-02-08T09:45:05.595Z,67.43
2023-02-08T09:46:05.584Z,66.02
2023-02-08T09:47:05.584Z,67.69
2023-02-08T09:48:05.626Z,72.24
2023-02-08T09:49:05.574Z,67.58
2023-02-08T09:50:05.561Z,66.58
2023-02-08T09:51:05.563Z,60.39
2023-02-08T09:52:05.539Z,66.59
2023-02-08T09:53:05.525Z,68.11
2023-02-08T09:54:05.529Z,67.81
2023-02-08T09:55:05.549Z,68.94
2023-02-08T09:56:05.537Z,68.41
2023-02-08T09:57:05.487Z,70.34
2023-02-08T09:58:05.503Z,65.61
2023-02-08T09:59:05.502Z,67.53
2023-02-08T10:00:05.497Z,70.15
2023-02-08T10:01:06.105Z,62.14
2023-02-08T10:02:06.485Z,70.72
2023-02-08T10:03:05.482Z,71.99
2023-02-08T10:04:05.509Z,69.52
2023-02-08T10:05:05.433Z,62.43
2023-02-08T10:06:05.450Z,69.65
2023-02-08T10:07:05.448Z,65.67
2023-02-08T10:08:05.399Z,66.78
2023-02-08T10:09:05.495Z,54.40
2023-02-08T10:10:05.399Z,70.18
2023-02-08T10:11:05.403Z,71.80
2023-02-08T10:12:05.361Z,63.96
2023-02-08T10:13:05.437Z,67.48
2023-02-08T10:14:05.395Z,70.78
2023-02-08T10:15:05.382Z,68.53
2023-02-08T10:16:05.386Z,55.12
2023-02-08T10:17:05.344Z,64.84
2023-02-08T10:18:05.376Z,68.94
2023-02-08T10:19:05.321Z,71.02
2023-02-08T10:20:05.288Z,70.41
2023-02-08T10:21:05.308Z,71.09
2023-02-08T10:22:05.335Z,65.11
2023-02-08T10:23:05.275Z,70.96
2023-02-08T10:24:05.302Z,58.24
2023-02-08T10:25:05.306Z,63.82
2023-02-08T10:26:05.263Z,61.93
2023-02-08T10:27:05.306Z,61.23
2023-02-08T10:28:05.397Z,71.61
2023-02-08T10:29:05.310Z,59.85
2023-02-08T10:30:05.245Z,69.38
2023-02-08T10:31:05.320Z,62.78
2023-02-08T10:32:05.348Z,62.43
2023-02-08T10:33:05.246Z,67.68
2023-02-08T10:34:07.490Z,61.77
2023-02-08T10:35:05.198Z,68.13
2023-02-08T10:36:05.190Z,69.42
2023-02-08T10:37:05.214Z,65.67
2023-02-08T10:38:05.208Z,71.85
2023-02-08T10:39:05.160Z,67.05
2023-02-08T10:40:05.156Z,63.52
2023-02-08T10:41:05.146Z,66.90
2023-02-08T10:42:05.153Z,65.23
2023-02-08T10:43:05.139Z,68.77
2023-02-08T10:44:06.134Z,60.70
2023-02-08T10:45:12.724Z,66.81
2023-02-08T10:46:07.204Z,65.66
2023-02-08T10:47:05.164Z,64.39
2023-02-08T10:48:05.088Z,67.38
2023-02-08T10:49:05.075Z,69.33
2023-02-08T10:50:05.066Z,66.86
2023-02-08T10:51:05.044Z,67.01
2023-02-08T10:52:05.047Z,66.92
2023-02-08T10:53:05.824Z,62.95
2023-02-08T10:54:05.807Z,67.77
2023-02-08T10:55:05.055Z,67.63
2023-02-08T10:56:05.026Z,68.49
2023-02-08T10:57:04.996Z,65.69
2023-02-08T10:58:04.986Z,65.25
2023-02-08T10:59:05.017Z,64.96
2023-02-08T11:00:05.000Z,65.39
2023-02-08T11:01:07.305Z,66.91
2023-02-08T11:02:04.967Z,72.77
2023-02-08T11:03:04.956Z,69.15
2023-02-08T11:04:05.093Z,64.11
2023-02-08T11:05:04.974Z,71.50
2023-02-08T11:06:04.937Z,66.37
2023-02-08T11:07:04.923Z,68.80
2023-02-08T11:08:04.915Z,63.43
2023-02-08T11:09:04.947Z,68.85
2023-02-08T11:10:04.907Z,71.17
2023-02-08T11:11:04.926Z,68.31
2023-02-08T11:12:05.780Z,65.81
2023-02-08T11:13:04.885Z,68.11
2023-02-08T11:14:04.879Z,68.64
2023-02-08T11:15:04.874Z,63.96
2023-02-08T11:16:04.859Z,64.79
2023-02-08T11:17:04.828Z,67.39
2023-02-08T11:18:04.868Z,67.45
2023-02-08T11:19:04.826Z,70.91
2023-02-08T11:20:04.846Z,68.38
2023-02-08T11:21:04.883Z,66.42
2023-02-08T11:22:04.841Z,66.97
2023-02-08T11:23:04.819Z,66.36
2023-02-08T11:24:04.844Z,71.68
2023-02-08T11:25:04.798Z,69.57
2023-02-08T11:26:04.771Z,70.95
2023-02-08T11:27:04.827Z,66.95
2023-02-08T11:28:04.770Z,68.49
2023-02-08T11:29:04.745Z,61.46
2023-02-08T11:30:04.732Z,59.68
2023-02-08T11:31:04.741Z,68.72
2023-02-08T11:32:04.829Z,69.40
2023-02-08T11:33:04.719Z,69.19
2023-02-08T11:34:04.713Z,65.78
2023-02-08T11:35:04.731Z,65.43
2023-02-08T11:36:04.705Z,67.13
2023-02-08T11:37:04.726Z,62.60
2023-02-08T11:38:04.682Z,64.30
2023-02-08T11:39:05.344Z,67.92
2023-02-08T11:40:04.663Z,69.33
2023-02-08T11:41:04.664Z,69.42
2023-02-08T11:42:04.678Z,64.16
2023-02-08T11:43:04.713Z,70.53
2023-02-08T11:44:04.643Z,62.23
2023-02-08T11:45:04.619Z,66.86
2023-02-08T11:46:04.663Z,64.55
2023-02-08T11:47:04.606Z,66.52
2023-02-08T11:48:04.695Z,66.60
2023-02-08T11:49:04.666Z,65.30
2023-02-08T11:50:04.578Z,59.47
2023-02-08T11:51:04.636Z,66.53
2023-02-08T11:52:04.572Z,67.65
2023-02-08T11:53:05.355Z,62.58
2023-02-08T11:54:04.592Z,67.72
2023-02-08T11:55:04.573Z,68.60
2023-02-08T11:56:04.556Z,66.05
2023-02-08T11:57:04.538Z,67.70
2023-02-08T11:58:04.544Z,66.42
2023-02-08T11:59:04.507Z,57.50
2023-02-08T12:00:04.513Z,70.83
2023-02-08T12:01:04.504Z,67.86
2023-02-08T12:02:04.507Z,61.58
2023-02-08T12:03:04.559Z,63.76
2023-02-08T12:04:04.482Z,58.51
2023-02-08T12:05:04.485Z,67.54
2023-02-08T12:06:04.461Z,69.78
2023-02-08T12:07:04.471Z,62.31
2023-02-08T12:08:04.441Z,62.48
2023-02-08T12:09:04.451Z,65.43
2023-02-08T12:10:04.439Z,64.47
2023-02-08T12:11:04.449Z,70.25
2023-02-08T12:12:04.428Z,67.05
2023-02-08T12:13:04.449Z,65.18
2023-02-08T12:14:04.421Z,59.15
2023-02-08T12:15:04.429Z,69.57
2023-02-08T12:16:04.831Z,67.97
2023-02-08T12:17:04.373Z,62.42
2023-02-08T12:18:04.410Z,68.05
2023-02-08T12:19:04.352Z,62.31
2023-02-08T12:20:36.460Z,65.29
2023-02-08T12:21:04.522Z,72.69
2023-02-08T12:22:04.354Z,62.69
2023-02-08T12:23:05.354Z,64.90
2023-02-08T12:24:04.321Z,68.73
2023-02-08T12:25:04.369Z,68.20
2023-02-08T12:26:04.353Z,65.29
2023-02-08T12:27:04.384Z,64.05
2023-02-08T12:28:04.309Z,69.16
2023-02-08T12:29:04.308Z,54.14
2023-02-08T12:30:04.282Z,67.37
2023-02-08T12:31:04.448Z,69.10
2023-02-08T12:32:04.254Z,65.82
2023-02-08T12:33:04.340Z,61.51
2023-02-08T12:34:04.261Z,70.04
2023-02-08T12:35:04.565Z,68.29
2023-02-08T12:36:05.546Z,66.54
2023-02-08T12:37:05.229Z,68.84
2023-02-08T12:38:04.367Z,67.14
2023-02-08T12:39:17.039Z,70.08
2023-02-08T12:40:06.243Z,72.14
2023-02-08T12:41:04.188Z,66.62
2023-02-08T12:42:04.210Z,67.21
2023-02-08T12:43:04.195Z,64.52
2023-02-08T12:44:04.216Z,69.16
2023-02-08T12:45:04.167Z,66.98
2023-02-08T12:46:04.197Z,64.99
2023-02-08T12:47:04.148Z,60.90
2023-02-08T12:48:05.106Z,67.10
2023-02-08T12:49:05.117Z,68.60
2023-02-08T12:50:04.146Z,66.89
2023-02-08T12:51:04.101Z,69.11
2023-02-08T12:52:04.114Z,69.53
2023-02-08T12:53:04.098Z,67.41
2023-02-08T12:54:04.125Z,69.62
2023-02-08T12:55:04.116Z,64.48
2023-02-08T12:56:04.857Z,64.47
2023-02-08T12:57:04.167Z,70.26
2023-02-08T12:58:04.088Z,68.29
2023-02-08T12:59:13.472Z,67.62
2023-02-08T13:00:06.080Z,67.31
2023-02-08T13:01:04.039Z,70.69
2023-02-08T13:02:04.051Z,65.52
2023-02-08T13:03:04.014Z,63.96
2023-02-08T13:04:04.028Z,59.61
2023-02-08T13:05:03.995Z,64.09
2023-02-08T13:06:04.369Z,70.50
2023-02-08T13:07:04.006Z,61.66
2023-02-08T13:08:03.980Z,69.32
2023-02-08T13:09:04.038Z,67.01